Portada
METAR-TAF:

METAR-TAF

Aeropuertos :

Agen, Francia

latitud: 44-11N, longitud: 000-36E, altitud: 61 m

Observación

El informe se hizo hace 37 minutos, a las 23:00 UTC
Viento 2 kt con dirección variable
Temperatura 9°C
Humedad 81%
Presión 1015 hPa
Visibilidad 10 km o más
sin nubes por debajo de 1500 m y sin presencia de cumulonimbus.

METAR: LFBA 312300Z AUTO VRB02KT CAVOK 09/06 Q1015

Hora: 01:37 (23:37 UTC)


TAF: falta

Observaciones y pronósticos meteorológicos de más de 4000 aeropuertos (mensajes METAR y TAF).

Los puntos amarillos y rojos representan las estaciones disponibles.

Ponga el ratón en el punto deseado para ver el nombre de la estación.

Haga clic para ver las observaciones y los pronósticos meteorológicos.

Para cambiar el mapa : haga clic en los botones verdes con una cruz de color negro para hacer un zoom, en el botón verde con un guión para alejar o en las flechas verdes para mapas adyacentes.


METAR-TAF: